Time;durP1;ratioP1;P1;durP2;ratioP2;P2;SDS_P1;SDS_P2;PMS_P1;PMS_P2;Temp;Humidity;BMP_temperature;BMP_pressure;BME280_temperature;BME280_humidity;BME280_pressure;Samples;Min_cycle;Max_cycle;Signal;HPM_P1;HPM_P2
2023/03/14 00:03:29;;;;;;;6.45;2.95;;;;;;;4.77;94.69;101232.78;10431451;28;20068;-73
2023/03/14 00:08:29;;;;;;;5.82;3.83;;;;;;;4.75;95.27;101224.16;10427330;28;20040;-73
2023/03/14 00:13:50;;;;;;;4.45;2.85;;;;;;;4.79;94.56;101232.69;10455904;28;20041;-73
2023/03/14 00:19:10;;;;;;;4.88;3.35;;;;;;;4.34;94.49;101161.31;10455184;28;20041;-73
2023/03/14 00:24:29;;;;;;;4.80;3.05;;;;;;;4.68;94.70;101219.44;10432161;28;20049;-74
2023/03/14 00:29:48;;;;;;;3.92;2.70;;;;;;;4.74;93.99;101230.38;10414120;28;20412;-74
2023/03/14 00:35:08;;;;;;;4.93;3.35;;;;;;;4.61;94.35;101250.63;10414277;28;20045;-74
2023/03/14 00:40:28;;;;;;;5.28;3.60;;;;;;;4.67;94.45;101263.34;10414225;28;20440;-73
2023/03/14 00:45:48;;;;;;;4.60;3.30;;;;;;;4.72;94.90;101257.75;10413838;28;20485;-74
2023/03/14 00:51:09;;;;;;;6.03;3.53;;;;;;;4.75;94.67;101263.63;10413591;28;20076;-74
2023/03/14 00:56:21;;;;;;;6.27;3.60;;;;;;;4.07;94.69;101153.56;10413538;28;20034;-74
2023/03/14 01:01:23;;;;;;;4.93;3.40;;;;;;;4.79;94.95;101280.91;10413609;28;20485;-74
2023/03/14 01:06:26;;;;;;;5.40;3.50;;;;;;;4.79;94.63;101293.25;10413171;28;20527;-74
2023/03/14 01:11:30;;;;;;;7.50;3.75;;;;;;;4.80;94.03;101297.53;10413164;28;20046;-74
2023/03/14 01:16:32;;;;;;;;;;;;;;;4.97;94.34;101291.09;10418160;28;20037;-74
2023/03/14 01:21:35;;;;;;;4.38;3.30;;;;;;;4.41;94.17;101238.84;10422351;28;20412;-74
2023/03/14 01:26:36;;;;;;;5.10;3.45;;;;;;;4.76;94.25;101290.81;10421611;28;20099;-74
2023/03/14 01:31:36;;;;;;;5.97;3.63;;;;;;;4.42;94.08;101247.56;10420502;28;20558;-73
2023/03/14 01:36:37;;;;;;;8.30;4.03;;;;;;;4.83;94.36;101335.97;10420909;28;20498;-74
2023/03/14 01:41:56;;;;;;;5.50;3.92;;;;;;;4.60;94.60;101304.19;10420220;28;20045;-74
2023/03/14 01:46:57;;;;;;;5.43;3.70;;;;;;;4.73;94.92;101325.25;10419802;28;20057;-73
2023/03/14 01:52:10;;;;;;;5.68;3.80;;;;;;;4.41;94.71;101257.25;10420581;28;20497;-74
2023/03/14 01:57:29;;;;;;;5.47;3.90;;;;;;;4.90;94.52;101332.78;10420073;28;20046;-73
2023/03/14 02:02:30;;;;;;;6.38;4.13;;;;;;;4.93;93.75;101337.84;10419682;28;20119;-74
2023/03/14 02:07:47;;;;;;;9.95;3.88;;;;;;;3.94;93.22;101166.69;10419625;28;20095;-73
2023/03/14 02:12:50;;;;;;;6.20;3.88;;;;;;;4.87;93.17;101338.28;10430480;28;20037;-74
2023/03/14 02:17:52;;;;;;;6.07;3.97;;;;;;;4.68;92.91;101296.59;10417692;28;20069;-74
2023/03/14 02:22:53;;;;;;;7.65;4.25;;;;;;;4.76;92.92;101322.41;10419094;28;20069;-74
2023/03/14 02:27:54;;;;;;;5.15;3.58;;;;;;;4.69;92.90;101315.88;10418990;28;20554;-73
2023/03/14 02:33:09;;;;;;;6.03;3.60;;;;;;;4.85;92.82;101349.88;10418501;28;20068;-74
2023/03/14 02:38:37;;;;;;;6.40;3.30;;;;;;;4.79;90.88;101354.63;10418984;28;20095;-74
2023/03/14 02:43:37;;;;;;;5.63;3.33;;;;;;;4.64;91.57;101346.94;10418939;28;20049;-74
2023/03/14 02:48:48;;;;;;;4.97;2.70;;;;;;;4.43;90.98;101308.00;10428449;28;20049;-73
2023/03/14 02:53:49;;;;;;;4.30;2.30;;;;;;;4.61;90.59;101348.00;10416195;28;20551;-73
2023/03/14 02:58:50;;;;;;;4.82;2.50;;;;;;;4.38;90.57;101331.13;10415496;28;20076;-74
2023/03/14 03:03:51;;;;;;;9.65;3.03;;;;;;;4.25;90.56;101320.59;10411237;28;20116;-73
2023/03/14 03:08:52;;;;;;;3.92;2.60;;;;;;;4.48;90.71;101358.47;10411543;28;20375;-74
2023/03/14 03:13:53;;;;;;;5.55;2.13;;;;;;;4.45;90.64;101345.53;10411948;28;20049;-73
2023/03/14 03:18:53;;;;;;;5.63;2.20;;;;;;;4.50;90.64;101355.75;10406991;28;20390;-73
2023/03/14 03:23:54;;;;;;;3.58;1.83;;;;;;;4.46;90.21;101354.31;10444682;28;20037;-73
2023/03/14 03:28:55;;;;;;;3.53;1.73;;;;;;;4.62;89.95;101398.84;10440342;28;20049;-73
2023/03/14 03:33:57;;;;;;;4.65;1.73;;;;;;;4.30;90.25;101351.84;10416097;28;20084;-73
2023/03/14 03:38:57;;;;;;;3.92;1.83;;;;;;;4.66;89.76;101390.59;10414032;28;20447;-74
2023/03/14 03:43:59;;;;;;;4.18;1.90;;;;;;;4.53;89.47;101392.41;10415109;28;20140;-73
2023/03/14 03:49:00;;;;;;;3.85;1.77;;;;;;;4.67;89.99;101420.44;10415170;28;20046;-74
2023/03/14 03:54:00;;;;;;;4.78;1.73;;;;;;;4.48;88.62;101390.06;10415901;28;20052;-72
2023/03/14 03:59:01;;;;;;;5.90;1.92;;;;;;;4.73;88.92;101404.22;10414518;28;20386;-72
2023/03/14 04:04:02;;;;;;;3.72;1.80;;;;;;;4.85;88.33;101392.00;10434980;28;20041;-73
2023/03/14 04:09:03;;;;;;;3.65;1.98;;;;;;;4.87;88.98;101398.00;10414988;28;20049;-74
2023/03/14 04:14:05;;;;;;;6.18;2.30;;;;;;;4.89;88.00;101394.31;10415111;28;20092;-73
2023/03/14 04:19:06;;;;;;;2.95;1.80;;;;;;;4.68;88.33;101377.34;10412438;28;20045;-74
2023/03/14 04:24:06;;;;;;;5.05;1.95;;;;;;;4.30;88.23;101322.91;10413616;28;20042;-73
2023/03/14 04:29:07;;;;;;;2.92;1.65;;;;;;;4.87;88.18;101408.53;10413879;28;20409;-71
2023/03/14 04:34:08;;;;;;;3.63;1.80;;;;;;;4.33;87.61;101341.94;10447017;28;20040;-74
2023/03/14 04:39:09;;;;;;;4.80;1.63;;;;;;;4.17;88.14;101322.06;10414960;28;20045;-74
2023/03/14 04:44:10;;;;;;;4.28;1.67;;;;;;;4.72;87.45;101427.03;10431966;28;20062;-75
2023/03/14 04:49:11;;;;;;;4.15;1.58;;;;;;;4.16;88.01;101330.88;10411525;28;20048;-75
2023/03/14 04:54:11;;;;;;;2.33;1.30;;;;;;;4.54;87.34;101407.22;10412751;28;20053;-75
2023/03/14 04:59:12;;;;;;;3.35;1.80;;;;;;;4.61;87.29;101410.28;10412726;28;20033;-75
2023/03/14 05:04:13;;;;;;;3.85;1.45;;;;;;;4.78;86.63;101449.47;10413097;28;20037;-74
2023/03/14 05:09:15;;;;;;;3.35;1.48;;;;;;;4.83;86.61;101442.13;10413784;28;20077;-75
2023/03/14 05:14:15;;;;;;;5.93;1.95;;;;;;;4.43;85.71;101363.25;10413113;28;20044;-75
2023/03/14 05:19:16;;;;;;;4.00;1.58;;;;;;;4.50;85.66;101369.75;10413373;28;20060;-74
2023/03/14 05:24:17;;;;;;;3.08;1.38;;;;;;;4.79;85.34;101406.44;10412792;28;20037;-74
2023/03/14 05:29:17;;;;;;;2.13;1.20;;;;;;;5.00;84.83;101426.03;10412812;28;20045;-76
2023/03/14 05:34:18;;;;;;;3.25;1.40;;;;;;;4.62;84.23;101370.72;10412670;28;20068;-74
2023/03/14 05:39:19;;;;;;;2.88;1.20;;;;;;;5.16;82.85;101436.34;10412386;28;20502;-75
2023/03/14 05:44:19;;;;;;;2.63;1.02;;;;;;;4.77;81.39;101359.13;10412444;28;20140;-75
2023/03/14 05:49:20;;;;;;;2.80;1.23;;;;;;;5.23;80.87;101442.00;10412380;28;20091;-75
2023/03/14 05:54:21;;;;;;;2.50;1.10;;;;;;;5.24;79.94;101441.91;10412811;28;20436;-75
2023/03/14 05:59:22;;;;;;;2.70;0.95;;;;;;;5.33;80.20;101452.78;10412640;28;20040;-76
2023/03/14 06:04:23;;;;;;;3.30;1.20;;;;;;;4.70;80.11;101333.34;10420073;28;20457;-75
2023/03/14 06:09:24;;;;;;;2.38;1.20;;;;;;;4.99;80.12;101376.91;10419013;28;20041;-76
2023/03/14 06:14:25;;;;;;;3.47;1.25;;;;;;;5.46;80.00;101430.72;10420143;28;20084;-76
2023/03/14 06:19:26;;;;;;;1.80;0.88;;;;;;;5.22;78.23;101396.38;10418762;28;20048;-76
2023/03/14 06:24:27;;;;;;;2.15;1.05;;;;;;;5.65;78.24;101450.50;10418788;28;20049;-74
2023/03/14 06:29:27;;;;;;;3.90;1.00;;;;;;;5.67;77.60;101451.22;10418870;28;20040;-75
2023/03/14 06:34:28;;;;;;;2.45;0.85;;;;;;;5.01;77.57;101309.19;10418559;28;20041;-75
2023/03/14 06:39:29;;;;;;;2.75;1.10;;;;;;;5.74;76.87;101402.38;10418481;28;20119;-75
2023/03/14 06:44:30;;;;;;;2.55;1.40;;;;;;;6.00;76.73;101400.50;10418372;28;20144;-74
2023/03/14 06:49:31;;;;;;;4.18;1.05;;;;;;;6.18;74.78;101420.25;10418735;28;20135;-74
2023/03/14 06:54:31;;;;;;;2.30;0.98;;;;;;;6.16;73.84;101410.78;10417285;28;20489;-75
2023/03/14 06:59:32;;;;;;;1.98;1.00;;;;;;;5.79;72.93;101302.69;10417128;28;20405;-73
2023/03/14 07:04:33;;;;;;;2.40;0.80;;;;;;;6.45;72.49;101426.25;10417280;28;20048;-74
2023/03/14 07:09:34;;;;;;;3.22;0.98;;;;;;;6.37;72.35;101395.16;10416801;28;20520;-75
2023/03/14 07:14:34;;;;;;;2.40;0.90;;;;;;;6.62;71.65;101400.28;10416378;28;20056;-75
2023/03/14 07:19:35;;;;;;;2.22;0.90;;;;;;;6.70;69.92;101407.63;10417461;28;20037;-75
2023/03/14 07:24:36;;;;;;;2.78;1.00;;;;;;;6.69;69.83;101419.13;10416930;28;20037;-76
2023/03/14 07:29:37;;;;;;;4.22;1.42;;;;;;;6.21;68.81;101316.28;10415972;28;20041;-75
2023/03/14 07:34:37;;;;;;;2.70;1.17;;;;;;;6.70;68.33;101375.06;10415665;28;20041;-75
2023/03/14 07:39:39;;;;;;;6.38;2.80;;;;;;;7.23;67.43;101417.63;10415650;28;20042;-76
2023/03/14 07:44:39;;;;;;;4.13;2.20;;;;;;;7.37;67.16;101406.81;10416496;28;20060;-75
2023/03/14 07:49:40;;;;;;;3.63;1.10;;;;;;;7.28;65.92;101374.03;10416139;28;20514;-75
2023/03/14 07:54:41;;;;;;;5.85;1.02;;;;;;;7.50;64.21;101401.38;10415009;28;20046;-75
2023/03/14 07:59:42;;;;;;;2.85;0.80;;;;;;;7.69;63.71;101395.50;10415494;28;20048;-75
2023/03/14 08:04:43;;;;;;;2.50;0.93;;;;;;;7.11;61.39;101313.72;10414497;28;20041;-75
2023/03/14 08:09:43;;;;;;;3.53;1.40;;;;;;;7.46;61.63;101357.66;10415275;28;20058;-75
2023/03/14 08:14:44;;;;;;;4.13;0.90;;;;;;;8.10;61.52;101400.03;10414731;28;20045;-74
2023/03/14 08:19:45;;;;;;;5.88;0.90;;;;;;;7.82;60.95;101329.19;10414665;28;20068;-76
2023/03/14 08:24:45;;;;;;;2.30;0.70;;;;;;;7.95;59.28;101333.34;10413638;28;20045;-73
2023/03/14 08:29:46;;;;;;;4.63;0.90;;;;;;;8.39;58.93;101386.25;10414739;28;20037;-76
2023/03/14 08:34:47;;;;;;;2.38;0.90;;;;;;;8.42;58.54;101331.22;10413440;28;20425;-76
2023/03/14 08:39:48;;;;;;;4.25;0.73;;;;;;;8.17;56.95;101284.78;10413374;28;20140;-76
2023/03/14 08:44:48;;;;;;;1.55;0.85;;;;;;;8.73;56.84;101367.50;10413644;28;20053;-75
2023/03/14 08:49:49;;;;;;;1.77;0.77;;;;;;;8.77;55.67;101366.28;10413768;28;20049;-76
2023/03/14 08:54:50;;;;;;;1.77;0.85;;;;;;;8.16;53.66;101288.38;10412963;28;20041;-76
2023/03/14 08:59:51;;;;;;;1.92;0.70;;;;;;;8.24;53.33;101256.81;10414040;28;20042;-76
2023/03/14 09:04:52;;;;;;;2.60;0.80;;;;;;;9.14;53.33;101354.16;10413239;28;20040;-76
2023/03/14 09:09:53;;;;;;;1.60;0.95;;;;;;;9.05;51.89;101320.50;10413986;28;20044;-73
2023/03/14 09:14:54;;;;;;;1.77;0.80;;;;;;;9.31;49.71;101343.91;10413722;28;20213;-73
2023/03/14 09:19:54;;;;;;;1.92;0.80;;;;;;;9.19;50.35;101286.66;10413513;28;20120;-73
2023/03/14 09:24:55;;;;;;;3.15;1.17;;;;;;;9.70;50.45;101320.09;10412244;28;20038;-75
2023/03/14 09:29:56;;;;;;;2.45;1.02;;;;;;;9.35;49.00;101260.44;10412747;28;20076;-74
2023/03/14 09:34:57;;;;;;;2.58;1.00;;;;;;;9.11;46.52;101240.44;10413681;28;20091;-76
2023/03/14 09:39:58;;;;;;;3.80;1.73;;;;;;;9.35;47.67;101302.88;10420919;28;20167;-74
2023/03/14 09:45:06;;;;;;;1.92;0.95;;;;;;;9.56;46.55;101311.56;10420760;28;20147;-75
2023/03/14 09:50:15;;;;;;;3.67;1.50;;;;;;;9.55;48.03;101286.03;10419946;28;20072;-75
2023/03/14 09:55:21;;;;;;;6.03;3.30;;;;;;;9.58;45.87;101284.91;10419909;28;20056;-74
2023/03/14 10:00:25;;;;;;;2.42;1.10;;;;;;;9.32;44.83;101276.63;10421086;28;20041;-75
2023/03/14 10:05:29;;;;;;;8.57;4.93;;;;;;;9.49;45.26;101289.22;10420002;28;20046;-75
2023/03/14 10:10:31;;;;;;;4.43;1.90;;;;;;;9.18;43.55;101193.00;10419782;28;20159;-75
2023/03/14 10:15:34;;;;;;;7.78;2.28;;;;;;;9.46;45.20;101238.28;10419032;28;20034;-75
2023/03/14 10:20:41;;;;;;;2.45;1.30;;;;;;;9.81;44.52;101264.22;10419591;28;20528;-76
2023/03/14 10:26:00;;;;;;;2.60;1.30;;;;;;;9.66;43.56;101250.53;10419177;28;20119;-75
2023/03/14 10:31:01;;;;;;;3.65;1.52;;;;;;;9.69;42.96;101257.38;10418982;28;20043;-74
2023/03/14 10:36:23;;;;;;;2.50;1.42;;;;;;;9.83;44.44;101251.66;10419698;28;20497;-75
2023/03/14 10:41:26;;;;;;;3.92;1.50;;;;;;;9.39;44.21;101176.97;10418319;28;20049;-74
2023/03/14 10:46:30;;;;;;;2.90;1.38;;;;;;;9.38;44.67;101156.75;10417475;28;20095;-75
2023/03/14 10:51:31;;;;;;;2.28;1.67;;;;;;;9.24;44.62;101143.91;10418151;28;20460;-74
2023/03/14 10:56:37;;;;;;;3.15;1.90;;;;;;;9.64;44.66;101233.13;10417356;28;20124;-75
2023/03/14 11:02:11;;;;;;;4.68;2.83;;;;;;;9.71;45.59;101213.00;10417867;28;20041;-75
2023/03/14 11:07:24;;;;;;;5.00;2.88;;;;;;;9.69;46.32;101209.63;10416980;28;20043;-74
2023/03/14 11:12:51;;;;;;;6.13;3.00;;;;;;;8.99;45.91;101063.97;10417415;28;20038;-75
2023/03/14 11:18:23;;;;;;;4.07;3.17;;;;;;;10.09;46.02;101211.25;10416556;28;20041;-75
2023/03/14 11:23:46;;;;;;;4.72;3.75;;;;;;;9.90;43.63;101196.19;10416549;28;20493;-76
2023/03/14 11:28:50;;;;;;;6.13;4.65;;;;;;;9.51;45.97;101108.72;10416969;28;20044;-75
2023/03/14 11:34:08;;;;;;;5.88;4.97;;;;;;;9.85;45.16;101163.97;10416442;28;20037;-75
2023/03/14 11:39:16;;;;;;;7.75;5.10;;;;;;;9.98;44.94;101188.38;10415954;28;20041;-74
2023/03/14 11:44:23;;;;;;;12.05;4.75;;;;;;;10.05;45.62;101185.00;10415457;28;20471;-75
2023/03/14 11:49:48;;;;;;;6.22;4.68;;;;;;;9.68;45.18;101146.94;10415910;28;20045;-75
2023/03/14 11:55:11;;;;;;;6.28;4.30;;;;;;;10.20;44.06;101208.41;10415312;28;20065;-75
2023/03/14 12:00:20;;;;;;;6.00;2.92;;;;;;;10.02;43.36;101148.13;10404112;28;20053;-75
2023/03/14 12:05:33;;;;;;;6.63;3.03;;;;;;;10.46;42.49;101211.28;10414563;28;20052;-74
2023/03/14 12:10:48;;;;;;;4.10;2.40;;;;;;;9.64;43.36;101116.38;10414470;28;20468;-75
2023/03/14 12:15:54;;;;;;;4.03;2.42;;;;;;;9.59;42.68;101108.84;10414802;28;20493;-75
2023/03/14 12:21:05;;;;;;;3.72;2.15;;;;;;;10.07;42.04;101174.22;10414780;28;20037;-75
2023/03/14 12:26:12;;;;;;;5.75;2.08;;;;;;;9.69;40.52;101108.81;10414415;28;20133;-74
2023/03/14 12:31:33;;;;;;;6.10;1.88;;;;;;;10.02;41.70;101190.59;10445742;28;20127;-75
2023/03/14 12:37:11;;;;;;;4.15;1.40;;;;;;;9.69;42.47;101109.69;10437949;28;20124;-78
2023/03/14 12:42:15;;;;;;;6.22;1.77;;;;;;;9.79;43.30;101186.59;10435476;28;20127;-76
2023/03/14 12:47:18;;;;;;;7.03;2.13;;;;;;;9.36;43.45;101129.53;10413634;28;20057;-77
2023/03/14 12:53:01;;;;;;;6.32;1.40;;;;;;;9.92;42.97;101191.59;10438753;28;20049;-77
2023/03/14 12:58:37;;;;;;;6.25;2.15;;;;;;;9.67;42.98;101193.03;10443682;28;20059;-77
2023/03/14 13:03:45;;;;;;;3.92;2.08;;;;;;;9.45;43.27;101202.94;10454515;28;20041;-76
2023/03/14 13:08:47;;;;;;;9.05;2.50;;;;;;;8.95;43.57;101142.09;10454300;28;20049;-77
2023/03/14 13:13:57;;;;;;;7.57;3.00;;;;;;;9.22;44.07;101198.91;10454126;28;20493;-76
2023/03/14 13:19:04;;;;;;;7.00;1.58;;;;;;;8.99;43.34;101199.13;10453599;28;20044;-77
2023/03/14 13:24:09;;;;;;;8.40;1.60;;;;;;;8.82;43.26;101195.31;10435212;28;20417;-77
2023/03/14 13:29:19;;;;;;;7.07;1.30;;;;;;;8.86;43.52;101201.22;10412800;28;20088;-77
2023/03/14 13:34:20;;;;;;;15.18;1.65;;;;;;;8.69;44.10;101176.19;10412646;28;20033;-77
2023/03/14 13:39:28;;;;;;;4.70;1.52;;;;;;;8.79;44.70;101187.66;10412863;28;20041;-77
2023/03/14 13:44:39;;;;;;;5.82;1.20;;;;;;;8.27;43.64;101085.47;10412702;28;20140;-77
2023/03/14 13:49:41;;;;;;;6.25;1.63;;;;;;;8.59;44.92;101154.16;10412003;28;20100;-77
2023/03/14 13:54:42;;;;;;;17.88;1.50;;;;;;;8.46;45.56;101130.53;10410629;28;20124;-77
2023/03/14 13:59:42;;;;;;;9.60;1.38;;;;;;;8.30;45.82;101124.91;10411736;28;20041;-76
2023/03/14 14:04:43;;;;;;;7.55;1.67;;;;;;;7.98;46.54;101072.94;10411585;28;20052;-77
2023/03/14 14:09:54;;;;;;;9.65;1.88;;;;;;;7.99;46.91;101090.53;10411687;28;20037;-77
2023/03/14 14:15:02;;;;;;;7.13;1.38;;;;;;;8.24;47.09;101155.38;10412256;28;20041;-76
2023/03/14 14:20:05;;;;;;;14.27;1.63;;;;;;;8.10;47.49;101142.50;10444524;28;20064;-77
2023/03/14 14:25:06;;;;;;;7.28;1.30;;;;;;;8.16;47.52;101161.31;10419085;28;20080;-78
2023/03/14 14:30:16;;;;;;;7.03;1.80;;;;;;;7.24;47.74;100999.97;10419019;28;20064;-78
2023/03/14 14:35:32;;;;;;;7.72;1.50;;;;;;;7.98;48.33;101128.50;10418151;28;20045;-77
2023/03/14 14:40:33;;;;;;;8.45;1.60;;;;;;;7.93;48.15;101126.28;10443117;28;20043;-77
2023/03/14 14:45:34;;;;;;;4.47;1.38;;;;;;;7.90;48.15;101131.84;10459751;28;20152;-77
2023/03/14 14:50:49;;;;;;;5.68;1.40;;;;;;;7.36;48.20;101079.16;10438061;28;20409;-77
2023/03/14 14:55:52;;;;;;;4.32;1.50;;;;;;;7.58;48.83;101126.63;10418044;28;20041;-77
2023/03/14 15:00:59;;;;;;;8.50;1.48;;;;;;;7.85;49.34;101157.00;10417866;28;20044;-77
2023/03/14 15:06:01;;;;;;;9.45;1.80;;;;;;;7.54;49.40;101120.78;10416938;28;20071;-77
2023/03/14 15:11:02;;;;;;;13.40;1.73;;;;;;;7.74;49.68;101165.84;10416284;28;20044;-77
2023/03/14 15:16:08;;;;;;;11.68;1.60;;;;;;;7.69;49.59;101163.59;10432866;28;20049;-76
2023/03/14 15:21:10;;;;;;;7.65;1.63;;;;;;;7.58;49.61;101160.16;10415427;28;20058;-77
2023/03/14 15:26:14;;;;;;;8.45;1.33;;;;;;;7.44;50.38;101159.50;10448856;28;20481;-76
2023/03/14 15:31:17;;;;;;;;;;;;;;;7.46;50.47;101172.59;10446058;28;20040;-79
2023/03/14 15:36:24;;;;;;;5.75;1.35;;;;;;;7.23;51.41;101183.25;10456632;28;19923;-76
2023/03/14 15:41:26;;;;;;;9.32;1.65;;;;;;;7.23;51.71;101185.06;10425091;28;20527;-79
2023/03/14 15:46:27;;;;;;;6.95;1.90;;;;;;;7.04;51.87;101164.59;10416447;28;20065;-75
2023/03/14 15:51:28;;;;;;;35.50;6.53;;;;;;;6.98;52.65;101159.81;10415770;28;20034;-76
2023/03/14 15:56:30;;;;;;;13.55;2.92;;;;;;;6.74;52.91;101121.22;10414829;28;20042;-74
2023/03/14 16:01:31;;;;;;;12.40;2.60;;;;;;;6.94;53.55;101145.16;10418422;28;20086;-76
2023/03/14 16:06:32;;;;;;;10.95;2.90;;;;;;;6.51;54.16;101083.47;10424444;28;20099;-78
2023/03/14 16:11:33;;;;;;;13.95;2.95;;;;;;;6.90;54.67;101155.16;10434998;28;20496;-75
2023/03/14 16:16:33;;;;;;;8.05;4.15;;;;;;;6.45;55.44;101085.78;10485009;28;20056;-74
2023/03/14 16:21:34;;;;;;;9.20;6.15;;;;;;;6.74;56.54;101150.28;10438491;28;20084;-76
2023/03/14 16:26:36;;;;;;;12.13;7.65;;;;;;;6.47;57.13;101140.13;10453624;28;20478;-81
2023/03/14 16:31:41;;;;;;;11.40;8.65;;;;;;;5.94;58.81;101076.59;10454237;28;20052;-79
2023/03/14 16:36:42;;;;;;;11.75;9.60;;;;;;;6.22;59.94;101159.66;10454210;28;20040;-75
2023/03/14 16:41:43;;;;;;;15.40;10.10;;;;;;;6.09;60.48;101158.94;10453850;28;20404;-78
2023/03/14 16:46:44;;;;;;;14.52;11.40;;;;;;;6.07;61.64;101169.63;10454843;28;20060;-78
2023/03/14 16:51:45;;;;;;;13.40;10.80;;;;;;;5.49;61.98;101092.31;10453780;28;20056;-76
2023/03/14 16:56:48;;;;;;;18.52;11.77;;;;;;;5.74;63.13;101149.28;10453718;28;20037;-81
2023/03/14 17:01:49;;;;;;;16.33;11.23;;;;;;;5.64;64.42;101170.22;10437427;28;20044;-79
2023/03/14 17:06:50;;;;;;;14.80;10.45;;;;;;;5.43;64.00;101151.59;10412585;28;20543;-80
2023/03/14 17:11:51;;;;;;;14.05;10.45;;;;;;;5.35;64.79;101169.78;10413136;28;20042;-79
2023/03/14 17:16:52;;;;;;;15.30;9.57;;;;;;;5.22;65.17;101175.09;10413559;28;20049;-80
2023/03/14 17:21:53;;;;;;;15.00;10.35;;;;;;;3.80;65.24;100948.63;10412091;28;20493;-81
2023/03/14 17:26:54;;;;;;;11.75;8.95;;;;;;;4.60;66.44;101109.44;10412349;28;20080;-79
2023/03/14 17:31:55;;;;;;;13.32;8.63;;;;;;;4.80;66.37;101147.50;10414566;28;20037;-80
2023/03/14 17:36:55;;;;;;;9.13;7.68;;;;;;;4.45;66.25;101113.19;10420471;28;20103;-80
2023/03/14 17:41:56;;;;;;;11.13;7.70;;;;;;;4.50;66.70;101140.00;10412000;28;20045;-80
2023/03/14 17:46:58;;;;;;;16.73;6.93;;;;;;;4.39;66.92;101153.91;10410743;28;20064;-80
2023/03/14 17:51:59;;;;;;;8.23;6.30;;;;;;;4.43;67.46;101175.56;10421597;28;20148;-77
2023/03/14 17:57:00;;;;;;;10.93;5.90;;;;;;;4.33;66.67;101175.38;10414095;28;20124;-81
2023/03/14 18:02:01;;;;;;;10.45;5.60;;;;;;;4.23;66.86;101169.09;10428237;28;20106;-80
2023/03/14 18:07:03;;;;;;;9.45;5.72;;;;;;;3.57;66.86;101071.97;10458081;28;20041;-79
2023/03/14 18:12:04;;;;;;;7.78;5.03;;;;;;;4.02;67.14;101177.53;10491113;28;20115;-79
2023/03/14 18:17:05;;;;;;;10.35;5.35;;;;;;;3.36;67.42;101083.94;10477106;28;20036;-80
2023/03/14 18:22:06;;;;;;;7.80;5.00;;;;;;;3.67;67.23;101157.09;10472150;28;20060;-79
2023/03/14 18:27:07;;;;;;;7.65;4.75;;;;;;;3.66;67.30;101168.56;10427464;28;20037;-79
2023/03/14 18:32:09;;;;;;;13.73;5.10;;;;;;;3.63;67.75;101170.56;10421176;28;20045;-80
2023/03/14 18:37:09;;;;;;;6.63;4.63;;;;;;;3.54;68.11;101165.91;10452306;28;20040;-79
2023/03/14 18:42:10;;;;;;;14.65;4.88;;;;;;;3.53;68.20;101170.34;10417786;28;20067;-79
2023/03/14 18:47:11;;;;;;;6.90;4.68;;;;;;;3.09;68.40;101116.34;10429354;28;20123;-78
2023/03/14 18:52:12;;;;;;;5.85;3.90;;;;;;;3.00;68.67;101098.56;10417961;28;20446;-79
2023/03/14 18:57:13;;;;;;;6.45;4.43;;;;;;;2.97;68.71;101114.53;10416312;28;20037;-78
2023/03/14 19:02:13;;;;;;;9.00;3.80;;;;;;;2.87;68.93;101089.81;10417507;28;20049;-78
2023/03/14 19:07:14;;;;;;;5.57;2.97;;;;;;;3.08;69.20;101140.91;10415638;28;20049;-77
2023/03/14 19:12:16;;;;;;;5.20;2.53;;;;;;;2.87;69.20;101110.78;10417253;28;20674;-77
2023/03/14 19:17:17;;;;;;;4.35;2.20;;;;;;;2.82;68.50;101105.88;10417810;28;20481;-78
2023/03/14 19:22:18;;;;;;;4.47;1.90;;;;;;;2.56;68.56;101059.47;10417724;28;20042;-78
2023/03/14 19:27:20;;;;;;;3.22;1.83;;;;;;;2.88;68.01;101110.72;10416990;28;20088;-78
2023/03/14 19:32:20;;;;;;;4.55;1.88;;;;;;;2.68;68.17;101075.25;10417310;28;20040;-77
2023/03/14 19:37:21;;;;;;;5.72;1.60;;;;;;;2.34;68.08;101023.31;10417152;28;20041;-78
2023/03/14 19:42:22;;;;;;;6.47;1.65;;;;;;;2.48;68.07;101037.22;10448494;28;20041;-77
2023/03/14 19:47:23;;;;;;;8.75;1.70;;;;;;;1.96;67.90;100961.06;10457215;28;20045;-77
2023/03/14 19:52:24;;;;;;;3.50;1.60;;;;;;;1.95;68.13;100938.44;10456512;28;20057;-77
2023/03/14 19:57:25;;;;;;;6.05;1.73;;;;;;;2.76;68.65;101064.28;10456748;28;20122;-77
2023/03/14 20:02:26;;;;;;;10.75;1.58;;;;;;;2.72;68.75;101058.41;10456780;28;20036;-77
2023/03/14 20:07:26;;;;;;;6.82;1.90;;;;;;;2.26;69.02;100987.09;10456434;28;20094;-77
2023/03/14 20:12:30;;;;;;;8.60;1.90;;;;;;;2.69;68.87;101055.09;10434584;28;20044;-77
2023/03/14 20:17:32;;;;;;;13.30;1.53;;;;;;;2.61;69.79;101033.81;10415557;28;20052;-77
2023/03/14 20:22:37;;;;;;;7.38;1.95;;;;;;;2.65;69.80;101035.28;10414600;28;20049;-77
2023/03/14 20:27:39;;;;;;;6.40;1.45;;;;;;;2.07;69.95;100934.19;10414679;28;20167;-77
2023/03/14 20:32:40;;;;;;;11.68;1.90;;;;;;;2.25;70.29;100967.06;10413802;28;20470;-78
2023/03/14 20:37:41;;;;;;;15.45;2.05;;;;;;;2.43;70.44;100997.34;10413956;28;20036;-77
2023/03/14 20:42:42;;;;;;;13.57;1.90;;;;;;;2.37;70.48;100989.03;10413519;28;20068;-78
2023/03/14 20:47:43;;;;;;;14.23;2.15;;;;;;;2.44;70.92;101016.53;10413649;28;20052;-77
2023/03/14 20:52:44;;;;;;;7.63;1.80;;;;;;;1.82;70.72;100909.53;10413863;28;20457;-77
2023/03/14 20:57:45;;;;;;;23.77;3.00;;;;;;;2.05;71.15;100935.09;10413625;28;20100;-78
2023/03/14 21:02:45;;;;;;;12.00;2.60;;;;;;;2.33;71.30;100977.88;10413678;28;20607;-78
2023/03/14 21:07:46;;;;;;;10.85;2.92;;;;;;;1.60;71.38;100853.28;10412673;28;20154;-78
2023/03/14 21:12:47;;;;;;;15.15;2.70;;;;;;;1.59;71.79;100845.53;10413465;28;20037;-78
2023/03/14 21:17:48;;;;;;;11.60;2.15;;;;;;;1.82;71.91;100886.81;10412990;28;20060;-78
2023/03/14 21:22:49;;;;;;;14.25;2.20;;;;;;;1.61;72.23;100854.13;10414102;28;20421;-78
2023/03/14 21:27:50;;;;;;;10.73;2.15;;;;;;;1.96;72.56;100913.91;10412796;28;20046;-78
2023/03/14 21:32:51;;;;;;;12.32;2.15;;;;;;;1.99;72.68;100922.41;10416965;28;20432;-77
2023/03/14 21:37:52;;;;;;;11.55;2.20;;;;;;;2.08;72.91;100943.72;10421000;28;20033;-78
2023/03/14 21:42:53;;;;;;;13.77;2.75;;;;;;;2.05;73.17;100936.88;10432350;28;20087;-78
2023/03/14 21:47:55;;;;;;;22.55;2.75;;;;;;;1.95;73.30;100927.94;10461931;28;20144;-78
2023/03/14 21:52:58;;;;;;;8.05;1.75;;;;;;;1.92;73.38;100910.66;10461422;28;20036;-78
2023/03/14 21:58:01;;;;;;;11.60;2.85;;;;;;;1.86;73.64;100889.25;10455923;28;20112;-78
2023/03/14 22:03:02;;;;;;;13.25;3.15;;;;;;;1.58;73.91;100851.69;10420272;28;20040;-78
2023/03/14 22:08:03;;;;;;;14.70;2.53;;;;;;;1.60;73.96;100842.81;10419281;28;20045;-77
2023/03/14 22:13:03;;;;;;;11.88;2.10;;;;;;;1.37;74.29;100804.16;10425728;28;20152;-78
2023/03/14 22:18:04;;;;;;;11.30;1.75;;;;;;;1.20;74.14;100766.00;10428363;28;20161;-78
2023/03/14 22:23:05;;;;;;;14.93;2.00;;;;;;;1.80;74.38;100861.66;10459101;28;20091;-77
2023/03/14 22:28:06;;;;;;;7.10;1.48;;;;;;;1.81;74.57;100861.53;10454116;28;20041;-77
2023/03/14 22:33:07;;;;;;;14.00;1.65;;;;;;;1.81;74.38;100850.22;10460412;28;20043;-78
2023/03/14 22:38:07;;;;;;;11.93;1.73;;;;;;;1.70;75.04;100827.34;10438346;28;20449;-78
2023/03/14 22:43:08;;;;;;;8.70;1.35;;;;;;;1.88;75.13;100863.75;10418978;28;20088;-78
2023/03/14 22:48:09;;;;;;;14.32;2.05;;;;;;;1.67;75.30;100824.91;10418651;28;20049;-78
2023/03/14 22:53:10;;;;;;;10.60;1.90;;;;;;;1.78;75.39;100832.94;10418425;28;20064;-78
2023/03/14 22:58:11;;;;;;;13.60;1.67;;;;;;;1.70;75.38;100816.03;10418711;28;20038;-78
2023/03/14 23:03:13;;;;;;;11.18;1.52;;;;;;;1.56;75.79;100788.13;10417367;28;20037;-78
2023/03/14 23:08:14;;;;;;;13.52;2.00;;;;;;;1.16;75.40;100696.44;10417002;28;20071;-78
2023/03/14 23:13:15;;;;;;;9.70;1.63;;;;;;;1.56;75.65;100760.16;10418194;28;20509;-78
2023/03/14 23:18:15;;;;;;;101.43;40.58;;;;;;;1.13;75.79;100691.41;10415823;28;20041;-78
2023/03/14 23:23:16;;;;;;;60.85;25.13;;;;;;;1.31;76.12;100732.09;10417473;28;20502;-78
2023/03/14 23:28:17;;;;;;;50.25;23.60;;;;;;;0.40;76.77;100594.97;10416420;28;20106;-78
2023/03/14 23:33:18;;;;;;;22.80;12.35;;;;;;;1.17;77.80;100740.03;10417328;28;20648;-78